Terminal Aerodrome Forecast
Issued by NWS Bismarck, ND

Home | Current Version | Previous Version | Graphics & Text | Print | Product List | Glossary Off
Versions: 1 2 3 4 5 6 7 8 9 10 11 12 13 14 15 16 17 18 19 20 21 22 23 24 25 26 27 28 29 30

000
FTUS43 KBIS 280521
TAFBIS
TAF
KBIS 280521Z 2806/2906 07006KT P6SM VCSH BKN040 OVC060
      TEMPO 2806/2810 6SM -SHRA OVC035
     FM281100 05004KT P6SM SCT015 BKN035
     FM281700 05006KT P6SM SCT035
     FM290400 07004KT P6SM SCT040=

USA.gov is the U.S. government's official web portal to all federal, state and local government web resources and services.